Time;durP1;ratioP1;P1;durP2;ratioP2;P2;SDS_P1;SDS_P2;PMS_P1;PMS_P2;Temp;Humidity;BMP_temperature;BMP_pressure;BME280_temperature;BME280_humidity;BME280_pressure;Samples;Min_cycle;Max_cycle;Signal;HPM_P1;HPM_P2
2023/07/10 00:02:04;;;;;;;18.60;6.00;;;;;;;22.28;46.45;99331.85;135741;1264;22536;-62
2023/07/10 00:05:06;;;;;;;;;;;;;;;22.41;45.96;99329.80;135770;1277;22499;-61
2023/07/10 00:08:09;;;;;;;18.40;5.80;;;;;;;22.36;46.17;99331.23;135773;1277;26055;-61
2023/07/10 00:11:11;;;;;;;;;;;;;;;21.90;47.09;99330.05;135824;1277;22507;-61
2023/07/10 00:14:14;;;;;;;19.00;6.00;;;;;;;21.25;48.97;99329.58;135793;1277;22525;-62
2023/07/10 00:17:16;;;;;;;;;;;;;;;21.07;49.41;99328.83;135819;1275;25615;-62
2023/07/10 00:20:18;;;;;;;20.20;6.80;;;;;;;21.08;49.82;99334.39;135768;1277;22546;-62
2023/07/10 00:23:21;;;;;;;18.60;6.70;;;;;;;20.90;50.21;99340.58;135747;1277;22528;-63
2023/07/10 00:26:23;;;;;;;;;;;;;;;20.92;50.27;99345.92;135750;1277;22512;-62
2023/07/10 00:29:25;;;;;;;19.80;6.90;;;;;;;20.72;50.83;99347.66;135747;1277;22527;-62
2023/07/10 00:32:28;;;;;;;;;;;;;;;20.93;49.98;99347.71;135739;1277;22613;-61
2023/07/10 00:35:30;;;;;;;17.80;6.60;;;;;;;21.23;49.33;99344.29;135764;1277;22531;-62
2023/07/10 00:38:34;;;;;;;;;;;;;;;21.00;49.89;99346.36;135775;1277;22527;-62
2023/07/10 00:41:36;;;;;;;19.70;6.70;;;;;;;21.28;49.04;99343.52;135724;1277;22664;-62
2023/07/10 00:44:39;;;;;;;;;;;;;;;21.09;49.51;99337.17;135755;1277;22514;-61
2023/07/10 00:47:41;;;;;;;20.90;6.80;;;;;;;21.03;49.73;99336.35;135688;1277;22549;-60
2023/07/10 00:50:45;;;;;;;;;;;;;;;20.87;49.73;99333.61;135668;1277;22534;-60
2023/07/10 00:53:48;;;;;;;19.00;6.80;;;;;;;20.84;50.00;99333.14;135762;1277;22551;-60
2023/07/10 00:56:50;;;;;;;;;;;;;;;20.75;50.25;99335.05;135750;1277;26160;-60
2023/07/10 00:59:52;;;;;;;17.90;6.70;;;;;;;20.92;50.01;99332.95;135827;1277;22557;-60
2023/07/10 01:02:55;;;;;;;18.20;6.30;;;;;;;20.31;51.68;99334.52;135790;1277;22524;-59
2023/07/10 01:05:57;;;;;;;18.70;6.60;;;;;;;20.71;50.75;99324.10;135810;1277;22577;-59
2023/07/10 01:09:00;;;;;;;;;;;;;;;20.75;50.53;99320.34;135803;1277;22614;-60
2023/07/10 01:12:04;;;;;;;17.90;5.90;;;;;;;20.38;51.16;99324.16;135814;1277;22527;-60
2023/07/10 01:15:06;;;;;;;18.60;6.40;;;;;;;20.05;51.89;99325.91;135746;1277;22555;-60
2023/07/10 01:18:11;;;;;;;;;;;;;;;19.88;52.85;99328.02;135810;1277;22528;-60
2023/07/10 01:21:13;;;;;;;24.30;7.60;;;;;;;19.91;52.79;99331.10;135796;1277;22530;-59
2023/07/10 01:24:16;;;;;;;;;;;;;;;19.99;52.45;99332.05;135794;1277;22521;-60
2023/07/10 01:27:18;;;;;;;16.40;5.70;;;;;;;20.10;52.11;99330.08;135644;1277;22723;-60
2023/07/10 01:30:21;;;;;;;;;;;;;;;19.82;52.44;99329.77;135766;1277;22508;-60
2023/07/10 01:33:23;;;;;;;19.20;7.00;;;;;;;19.55;53.30;99328.66;135788;1277;22531;-60
2023/07/10 01:36:26;;;;;;;17.40;6.00;;;;;;;19.91;52.16;99327.35;135812;1277;22992;-60
2023/07/10 01:39:28;;;;;;;;;;;;;;;20.19;51.38;99320.42;135807;1275;22508;-60
2023/07/10 01:42:30;;;;;;;17.80;5.50;;;;;;;20.41;51.06;99309.31;135812;1277;22526;-60
2023/07/10 01:45:33;;;;;;;;;;;;;;;20.70;50.06;99300.52;135785;1277;22653;-61
2023/07/10 01:48:35;;;;;;;17.40;5.30;;;;;;;20.50;50.47;99298.98;135790;1277;22636;-60
2023/07/10 01:51:38;;;;;;;;;;;;;;;19.52;53.36;99306.03;135788;1277;22508;-60
2023/07/10 01:54:40;;;;;;;15.20;5.50;;;;;;;19.30;54.42;99305.59;135772;1277;22577;-59
2023/07/10 01:57:42;;;;;;;;;;;;;;;19.66;53.52;99302.88;135793;1277;22621;-59
2023/07/10 02:00:45;;;;;;;16.90;5.60;;;;;;;19.62;53.75;99304.52;135809;1277;22600;-60
2023/07/10 02:03:47;;;;;;;19.00;6.50;;;;;;;19.68;53.49;99298.21;135653;1277;22535;-60
2023/07/10 02:06:50;;;;;;;;;;;;;;;19.59;53.54;99300.63;135821;1277;22518;-60
2023/07/10 02:09:52;;;;;;;19.70;6.60;;;;;;;19.44;53.82;99298.64;135759;1277;22531;-60
2023/07/10 02:12:54;;;;;;;;;;;;;;;19.32;54.18;99303.60;135802;1277;22538;-59
2023/07/10 02:15:57;;;;;;;18.20;6.00;;;;;;;19.29;54.20;99302.65;135776;1277;25269;-60
2023/07/10 02:18:59;;;;;;;;;;;;;;;19.16;54.43;99302.37;135792;1277;22504;-59
2023/07/10 02:22:02;;;;;;;17.00;5.20;;;;;;;19.30;53.64;99305.00;135763;1277;22629;-59
2023/07/10 02:25:04;;;;;;;;;;;;;;;19.02;54.59;99301.27;135754;1277;22527;-61
2023/07/10 02:28:06;;;;;;;17.50;6.00;;;;;;;19.09;54.70;99302.13;135655;1277;22538;-60
2023/07/10 02:31:09;;;;;;;16.00;5.50;;;;;;;18.98;55.36;99295.98;135804;1277;22531;-60
2023/07/10 02:34:12;;;;;;;;;;;;;;;19.21;55.11;99293.59;135821;1277;22541;-60
2023/07/10 02:37:15;;;;;;;19.60;6.10;;;;;;;19.05;55.41;99294.88;135738;1277;22553;-60
2023/07/10 02:40:17;;;;;;;;;;;;;;;19.49;53.69;99291.46;135780;1277;22524;-60
2023/07/10 02:43:20;;;;;;;14.80;5.00;;;;;;;19.74;52.65;99293.33;135776;1277;22534;-59
2023/07/10 02:46:22;;;;;;;16.70;5.30;;;;;;;19.84;52.29;99294.70;135724;1277;24363;-59
2023/07/10 02:49:25;;;;;;;15.40;5.20;;;;;;;19.73;52.31;99294.23;135744;1277;22557;-59
2023/07/10 02:52:27;;;;;;;;;;;;;;;19.77;52.34;99291.64;135765;1277;22517;-59
2023/07/10 02:55:33;;;;;;;16.80;5.80;;;;;;;19.79;52.91;99292.25;135824;1277;22527;-60
2023/07/10 02:58:35;;;;;;;18.80;6.00;;;;;;;19.81;52.89;99297.46;135817;1253;22563;-60
2023/07/10 03:01:37;;;;;;;;;;;;;;;19.45;53.94;99303.86;135803;1277;22506;-60
2023/07/10 03:04:40;;;;;;;23.80;6.20;;;;;;;19.45;53.88;99299.41;135820;1277;22550;-60
2023/07/10 03:07:42;;;;;;;;;;;;;;;19.61;53.81;99298.00;135771;1277;22508;-60
2023/07/10 03:10:45;;;;;;;19.90;5.40;;;;;;;19.55;54.58;99299.06;135781;1277;22552;-61
2023/07/10 03:13:48;;;;;;;17.20;5.20;;;;;;;19.58;54.95;99304.64;135770;1277;22538;-60
2023/07/10 03:16:50;;;;;;;;;;;;;;;19.67;55.09;99307.88;135766;1259;22512;-60
2023/07/10 03:19:53;;;;;;;17.30;5.30;;;;;;;20.02;54.37;99303.02;135821;1267;22534;-60
2023/07/10 03:22:55;;;;;;;;;;;;;;;20.40;53.66;99303.72;135805;1277;22525;-61
2023/07/10 03:25:57;;;;;;;16.20;5.30;;;;;;;20.23;54.23;99311.35;135784;1277;22530;-61
2023/07/10 03:29:00;;;;;;;;;;;;;;;20.32;53.91;99310.88;135787;1277;22526;-60
2023/07/10 03:32:02;;;;;;;19.10;6.20;;;;;;;19.85;55.50;99314.59;135629;1276;25372;-61
2023/07/10 03:35:05;;;;;;;18.70;5.60;;;;;;;20.17;54.88;99311.40;135621;1266;22540;-61
2023/07/10 03:38:07;;;;;;;;;;;;;;;20.25;54.94;99313.48;135651;1278;22521;-60
2023/07/10 03:41:11;;;;;;;14.80;4.90;;;;;;;20.46;55.03;99315.52;135616;1278;22517;-60
2023/07/10 03:44:13;;;;;;;18.80;5.50;;;;;;;20.88;54.46;99318.37;135651;1278;22540;-60
2023/07/10 03:47:16;;;;;;;18.90;5.60;;;;;;;21.58;52.15;99320.42;135615;1278;24225;-60
2023/07/10 03:50:19;;;;;;;20.90;6.80;;;;;;;22.28;50.28;99320.84;135646;1270;22538;-61
2023/07/10 03:53:21;;;;;;;21.40;6.00;;;;;;;22.54;50.24;99317.60;135627;1270;22527;-60
2023/07/10 03:56:24;;;;;;;17.80;5.40;;;;;;;22.18;51.37;99318.19;135683;1278;22583;-60
2023/07/10 03:59:27;;;;;;;19.10;6.20;;;;;;;21.86;53.14;99315.95;135673;1278;24252;-61
2023/07/10 04:02:29;;;;;;;18.50;6.20;;;;;;;22.08;52.77;99323.13;135660;1278;22523;-60
2023/07/10 04:05:32;;;;;;;16.40;5.60;;;;;;;22.15;52.62;99325.48;135743;1275;23957;-61
2023/07/10 04:08:34;;;;;;;18.70;5.70;;;;;;;22.05;53.12;99322.21;135775;1277;22773;-61
2023/07/10 04:11:36;;;;;;;23.10;6.10;;;;;;;22.22;52.77;99321.52;135781;1278;22534;-61
2023/07/10 04:14:39;;;;;;;20.70;6.30;;;;;;;22.67;52.17;99309.73;135802;1277;22562;-60
2023/07/10 04:17:41;;;;;;;;;;;;;;;23.19;51.10;99303.05;135721;1278;22513;-62
2023/07/10 04:20:44;;;;;;;;;;;;;;;23.15;51.70;99299.35;135806;1277;22520;-61
2023/07/10 04:23:46;;;;;;;16.30;5.50;;;;;;;23.43;51.23;99294.77;135773;1277;22554;-61
2023/07/10 04:26:49;;;;;;;;;;;;;;;23.57;51.27;99294.89;135724;1277;25357;-62
2023/07/10 04:29:51;;;;;;;17.40;5.60;;;;;;;23.63;51.11;99297.27;135774;1277;25471;-62
2023/07/10 04:32:54;;;;;;;16.30;5.30;;;;;;;23.60;51.16;99300.45;135671;1254;22530;-61
2023/07/10 04:35:56;;;;;;;15.20;5.10;;;;;;;23.53;50.93;99299.78;135701;1269;22570;-61
2023/07/10 04:38:59;;;;;;;16.90;5.50;;;;;;;23.44;51.61;99302.48;135730;1275;22532;-60
2023/07/10 04:42:01;;;;;;;16.10;5.00;;;;;;;23.76;51.34;99301.06;135693;1274;22539;-61
2023/07/10 04:45:04;;;;;;;19.50;5.40;;;;;;;24.40;49.69;99302.00;135684;1273;22571;-63
2023/07/10 04:48:06;;;;;;;17.90;5.60;;;;;;;23.84;51.15;99301.42;135702;1273;24226;-62
2023/07/10 04:51:09;;;;;;;17.70;5.10;;;;;;;23.73;52.12;99293.19;135666;1273;22542;-62
2023/07/10 04:54:12;;;;;;;17.10;5.80;;;;;;;24.02;51.69;99288.09;135740;1270;22530;-62
2023/07/10 04:57:14;;;;;;;17.10;5.20;;;;;;;24.41;51.07;99286.58;135663;1270;22546;-62
2023/07/10 05:00:17;;;;;;;15.90;6.50;;;;;;;24.64;50.84;99288.40;135704;1274;22531;-62
2023/07/10 05:03:19;;;;;;;16.00;5.20;;;;;;;24.83;50.97;99284.61;135693;1274;22997;-63
2023/07/10 05:06:22;;;;;;;17.00;5.30;;;;;;;25.26;51.02;99287.02;135742;1278;22542;-62
2023/07/10 05:09:24;;;;;;;19.00;5.60;;;;;;;25.77;50.52;99292.80;135692;1273;22535;-62
2023/07/10 05:12:27;;;;;;;17.10;5.60;;;;;;;26.19;50.23;99297.99;135718;1273;22526;-62
2023/07/10 05:15:29;;;;;;;16.50;5.40;;;;;;;26.64;49.73;99292.33;135713;1277;26493;-62
2023/07/10 05:18:32;;;;;;;16.00;5.50;;;;;;;27.11;49.23;99285.14;135688;1270;22513;-61
2023/07/10 05:21:34;;;;;;;14.40;5.00;;;;;;;27.23;49.19;99289.34;135713;1275;22537;-63
2023/07/10 05:24:37;;;;;;;14.20;5.20;;;;;;;27.67;48.74;99283.73;135710;1273;25306;-62
2023/07/10 05:27:39;;;;;;;17.20;5.60;;;;;;;27.96;48.53;99285.45;135755;1277;22538;-65
2023/07/10 05:30:42;;;;;;;15.80;5.00;;;;;;;28.35;47.66;99278.73;135749;1264;22542;-62
2023/07/10 05:33:45;;;;;;;21.60;5.50;;;;;;;28.59;46.98;99274.44;135507;1278;22540;-63
2023/07/10 05:36:47;;;;;;;15.70;5.40;;;;;;;28.93;46.24;99271.15;135459;1278;22601;-63
2023/07/10 05:39:50;;;;;;;18.30;5.40;;;;;;;29.14;45.78;99264.36;135520;1260;22630;-63
2023/07/10 05:42:52;;;;;;;15.70;4.80;;;;;;;29.60;44.39;99266.77;135565;1260;24209;-65
2023/07/10 05:45:55;;;;;;;14.30;4.60;;;;;;;30.32;42.97;99274.26;135594;1278;22533;-64
2023/07/10 05:48:57;;;;;;;14.50;4.60;;;;;;;30.22;42.92;99267.08;135644;1278;22542;-64
2023/07/10 05:51:59;;;;;;;17.10;4.90;;;;;;;30.40;42.35;99274.98;135646;1278;22789;-65
2023/07/10 05:55:02;;;;;;;18.70;5.30;;;;;;;30.51;42.27;99276.63;135701;1264;22562;-65
2023/07/10 05:58:04;;;;;;;14.40;4.40;;;;;;;30.72;41.73;99274.22;135722;1278;22537;-64
2023/07/10 06:01:07;;;;;;;17.40;4.90;;;;;;;30.98;40.93;99270.69;135703;1257;22527;-65
2023/07/10 06:04:09;;;;;;;12.70;4.60;;;;;;;30.99;40.95;99276.95;135703;1278;22521;-64
2023/07/10 06:07:12;;;;;;;14.70;4.70;;;;;;;31.11;41.49;99282.19;135652;1278;22578;-65
2023/07/10 06:10:14;;;;;;;16.80;5.20;;;;;;;31.40;40.65;99281.94;135716;1269;22539;-66
2023/07/10 06:13:16;;;;;;;18.60;5.40;;;;;;;31.73;39.77;99281.10;135692;1278;22577;-65
2023/07/10 06:16:19;;;;;;;17.00;5.50;;;;;;;31.88;39.15;99280.80;135659;1278;22562;-64
2023/07/10 06:19:21;;;;;;;17.30;5.30;;;;;;;32.21;38.24;99280.52;135526;1278;22619;-65
2023/07/10 06:22:23;;;;;;;19.40;4.90;;;;;;;32.37;38.03;99279.80;135585;1278;23355;-65
2023/07/10 06:25:26;;;;;;;16.20;4.90;;;;;;;32.44;37.47;99284.02;135700;1278;22563;-65
2023/07/10 06:28:28;;;;;;;15.70;4.70;;;;;;;32.05;38.04;99285.35;135508;1264;22542;-64
2023/07/10 06:31:31;;;;;;;14.40;4.50;;;;;;;32.44;37.54;99282.55;135725;1278;24474;-65
2023/07/10 06:34:33;;;;;;;13.50;4.80;;;;;;;32.65;36.95;99281.66;135635;1278;22533;-65
2023/07/10 06:37:36;;;;;;;16.50;4.40;;;;;;;33.07;35.92;99278.80;135650;1260;22540;-65
2023/07/10 06:40:38;;;;;;;17.20;4.30;;;;;;;33.36;36.49;99280.77;135707;1278;25403;-65
2023/07/10 06:43:41;;;;;;;18.30;4.90;;;;;;;33.62;36.30;99278.61;135723;1278;24368;-65
2023/07/10 06:46:43;;;;;;;18.80;5.10;;;;;;;34.29;34.58;99281.13;135718;1278;22551;-65
2023/07/10 06:49:45;;;;;;;21.10;6.00;;;;;;;34.70;33.42;99277.11;135535;1278;22555;-65
2023/07/10 06:52:48;;;;;;;24.50;5.90;;;;;;;34.99;33.71;99271.77;135658;1278;24373;-65
2023/07/10 06:55:50;;;;;;;23.40;6.20;;;;;;;35.28;33.34;99264.03;135716;1278;22538;-65
2023/07/10 06:58:53;;;;;;;21.90;7.40;;;;;;;35.21;32.28;99265.64;135700;1278;22537;-65
2023/07/10 07:01:55;;;;;;;23.60;7.30;;;;;;;35.14;32.16;99264.88;135704;1278;22563;-65
2023/07/10 07:04:57;;;;;;;26.00;8.40;;;;;;;35.48;32.55;99261.56;135695;1256;22527;-66
2023/07/10 07:08:00;;;;;;;24.30;8.50;;;;;;;35.59;31.20;99256.41;135568;1269;22568;-67
2023/07/10 07:11:02;;;;;;;24.90;8.00;;;;;;;35.59;31.80;99255.15;135711;1278;22573;-66
2023/07/10 07:14:05;;;;;;;21.80;6.60;;;;;;;35.91;30.78;99240.45;135730;1259;22538;-67
2023/07/10 07:17:07;;;;;;;17.50;4.70;;;;;;;35.96;30.84;99241.34;135703;1278;22528;-66
2023/07/10 07:20:09;;;;;;;16.40;4.20;;;;;;;36.45;29.35;99233.73;135641;1278;25482;-66
2023/07/10 07:23:12;;;;;;;14.50;4.10;;;;;;;36.25;29.54;99228.91;135675;1278;22553;-68
2023/07/10 07:26:14;;;;;;;15.70;4.30;;;;;;;36.57;30.09;99228.68;135655;1278;22530;-67
2023/07/10 07:29:17;;;;;;;17.70;4.60;;;;;;;37.12;29.95;99225.73;135671;1278;24049;-66
2023/07/10 07:32:19;;;;;;;14.80;3.90;;;;;;;37.37;28.21;99223.04;135668;1270;22777;-66
2023/07/10 07:35:21;;;;;;;15.80;4.10;;;;;;;37.13;28.28;99224.28;135691;1278;25239;-67
2023/07/10 07:38:24;;;;;;;13.10;3.80;;;;;;;37.68;28.18;99224.94;135696;1260;22551;-67
2023/07/10 07:41:26;;;;;;;9.70;2.90;;;;;;;37.86;26.39;99226.98;135714;1278;22573;-67
2023/07/10 07:44:29;;;;;;;10.20;3.20;;;;;;;37.66;27.37;99227.88;135668;1278;22594;-67
2023/07/10 07:47:31;;;;;;;10.40;3.40;;;;;;;38.06;26.46;99235.11;135749;1278;22650;-67
2023/07/10 07:50:34;;;;;;;9.40;3.10;;;;;;;38.31;26.26;99232.42;135669;1261;24378;-67
2023/07/10 07:53:36;;;;;;;10.20;3.20;;;;;;;38.23;26.23;99231.88;135700;1278;22543;-67
2023/07/10 07:56:38;;;;;;;11.30;3.70;;;;;;;38.46;25.34;99230.57;135685;1278;22556;-67
2023/07/10 07:59:41;;;;;;;11.90;3.00;;;;;;;39.12;25.54;99233.69;135710;1278;22568;-66
2023/07/10 08:02:43;;;;;;;16.50;3.70;;;;;;;39.72;25.71;99232.73;135552;1257;181826;-68
2023/07/10 08:05:46;;;;;;;12.60;3.50;;;;;;;39.90;24.60;99230.03;135705;1268;22567;-68
2023/07/10 08:08:48;;;;;;;11.20;3.40;;;;;;;39.52;23.81;99234.88;135737;1278;22535;-67
2023/07/10 08:11:50;;;;;;;11.60;3.10;;;;;;;39.11;23.64;99233.35;135647;1278;22551;-68
2023/07/10 08:14:53;;;;;;;8.40;2.80;;;;;;;39.38;23.22;99238.20;135630;1278;22534;-68
2023/07/10 08:17:55;;;;;;;8.30;2.90;;;;;;;39.46;23.06;99235.92;135753;1278;22651;-68
2023/07/10 08:20:58;;;;;;;9.30;2.90;;;;;;;38.96;21.76;99239.02;135753;1267;24345;-68
2023/07/10 08:24:00;;;;;;;8.90;2.90;;;;;;;38.25;22.56;99225.42;135638;1278;22560;-67
2023/07/10 08:27:02;;;;;;;9.40;2.80;;;;;;;38.39;22.27;99224.35;135711;1278;22533;-68
2023/07/10 08:30:05;;;;;;;10.60;2.80;;;;;;;38.40;22.97;99219.98;135693;1278;25303;-67
2023/07/10 08:33:07;;;;;;;7.70;2.80;;;;;;;38.91;22.72;99223.61;135661;1278;22543;-68
2023/07/10 08:36:10;;;;;;;9.50;2.50;;;;;;;39.46;22.74;99221.33;135714;1260;22546;-69
2023/07/10 08:39:14;;;;;;;9.70;2.80;;;;;;;39.78;22.49;99222.14;135708;1278;25464;-69
2023/07/10 08:42:17;;;;;;;7.20;2.30;;;;;;;39.77;21.25;99235.09;135713;1278;24232;-68
2023/07/10 08:45:19;;;;;;;5.80;2.50;;;;;;;39.04;22.07;99235.77;135714;1269;24235;-68
2023/07/10 08:48:22;;;;;;;8.20;2.70;;;;;;;38.89;22.69;99231.34;135740;1278;22531;-69
2023/07/10 08:51:24;;;;;;;7.10;2.40;;;;;;;38.78;21.83;99228.56;135702;1278;22576;-69
2023/07/10 08:54:27;;;;;;;3.80;2.00;;;;;;;38.90;21.71;99226.95;135725;1264;22659;-69
2023/07/10 08:57:29;;;;;;;7.20;2.20;;;;;;;39.03;21.35;99221.11;135734;1260;24229;-69
2023/07/10 09:00:31;;;;;;;9.40;2.80;;;;;;;39.01;21.26;99218.37;135735;1278;22536;-69
2023/07/10 09:03:34;;;;;;;7.70;2.70;;;;;;;38.99;22.08;99216.11;135709;1278;22534;-69
2023/07/10 09:06:36;;;;;;;8.90;2.80;;;;;;;39.36;23.23;99213.30;135721;1260;22534;-69
2023/07/10 09:09:39;;;;;;;6.20;2.60;;;;;;;40.04;21.97;99204.08;135613;1276;22523;-69
2023/07/10 09:12:41;;;;;;;9.40;2.60;;;;;;;40.50;21.95;99198.66;135696;1278;22628;-69
2023/07/10 09:15:44;;;;;;;5.30;2.50;;;;;;;40.95;21.01;99198.68;135744;1276;22558;-69
2023/07/10 09:18:46;;;;;;;7.10;2.50;;;;;;;40.25;19.84;99196.58;135724;1278;22630;-69
2023/07/10 09:21:48;;;;;;;5.00;2.30;;;;;;;39.44;20.61;99199.05;135621;1278;22559;-69
2023/07/10 09:24:51;;;;;;;7.10;2.50;;;;;;;39.46;20.08;99204.81;135571;1278;22617;-68
2023/07/10 09:27:54;;;;;;;5.80;2.30;;;;;;;39.54;21.06;99201.52;135708;1278;22542;-69
2023/07/10 09:30:56;;;;;;;4.50;2.00;;;;;;;39.54;20.82;99204.38;135577;1260;24188;-68
2023/07/10 09:33:58;;;;;;;3.00;1.80;;;;;;;38.96;20.29;99203.39;135681;1266;22653;-68
2023/07/10 09:37:01;;;;;;;4.10;2.10;;;;;;;39.01;20.08;99205.64;135728;1278;25240;-68
2023/07/10 09:40:04;;;;;;;3.60;2.10;;;;;;;39.51;20.01;99204.21;135690;1278;22557;-68
2023/07/10 09:43:06;;;;;;;5.30;2.40;;;;;;;39.59;19.56;99208.81;135686;1278;22574;-68
2023/07/10 09:46:08;;;;;;;5.50;2.30;;;;;;;39.08;19.56;99208.35;135764;1278;23044;-66
2023/07/10 09:49:11;;;;;;;3.60;1.90;;;;;;;38.54;20.16;99214.98;135689;1278;22538;-67
2023/07/10 09:52:13;;;;;;;4.90;2.30;;;;;;;38.05;20.72;99214.31;135656;1260;22537;-68
2023/07/10 09:55:16;;;;;;;6.20;2.30;;;;;;;38.25;20.49;99211.02;135723;1278;22944;-68
2023/07/10 09:58:18;;;;;;;5.70;2.40;;;;;;;38.44;20.82;99208.10;135662;1261;22530;-67
2023/07/10 10:01:20;;;;;;;4.20;2.00;;;;;;;38.86;20.94;99205.66;135692;1278;22676;-68
2023/07/10 10:04:23;;;;;;;4.90;2.10;;;;;;;39.18;20.01;99206.60;135689;1278;22534;-68
2023/07/10 10:07:25;;;;;;;5.20;2.20;;;;;;;39.04;19.52;99203.95;135573;1278;22556;-67
2023/07/10 10:10:28;;;;;;;3.40;2.00;;;;;;;39.15;19.72;99202.21;135433;1278;22532;-67
2023/07/10 10:13:30;;;;;;;6.30;2.30;;;;;;;39.27;20.26;99204.59;135460;1278;22538;-67
2023/07/10 10:16:32;;;;;;;4.90;2.40;;;;;;;39.16;20.20;99206.17;135614;1278;22531;-67
2023/07/10 10:19:35;;;;;;;8.90;2.20;;;;;;;39.13;19.99;99200.08;135588;1275;22559;-67
2023/07/10 10:22:37;;;;;;;6.80;2.50;;;;;;;39.29;19.87;99200.31;135644;1278;22560;-67
2023/07/10 10:25:40;;;;;;;5.80;2.30;;;;;;;39.37;19.53;99195.38;135709;1278;22554;-68
2023/07/10 10:28:42;;;;;;;5.70;2.00;;;;;;;39.33;20.39;99190.55;135736;1278;22564;-67
2023/07/10 10:31:44;;;;;;;4.30;2.10;;;;;;;39.37;20.44;99187.92;135724;1278;22522;-68
2023/07/10 10:34:47;;;;;;;6.70;2.30;;;;;;;39.07;20.33;99193.14;135679;1260;22636;-67
2023/07/10 10:37:49;;;;;;;7.20;2.50;;;;;;;38.45;19.82;99192.27;135712;1278;25312;-68
2023/07/10 10:40:52;;;;;;;4.90;2.00;;;;;;;38.63;20.42;99185.86;135722;1278;25475;-68
2023/07/10 10:43:54;;;;;;;8.30;2.60;;;;;;;39.36;20.19;99184.23;135732;1278;22547;-68
2023/07/10 10:46:56;;;;;;;6.20;2.30;;;;;;;39.10;19.53;99184.05;135741;1278;22534;-67
2023/07/10 10:49:59;;;;;;;4.70;2.50;;;;;;;38.77;19.97;99177.48;135751;1278;25388;-68
2023/07/10 10:53:01;;;;;;;7.60;2.30;;;;;;;39.10;20.19;99174.45;135653;1278;22544;-67
2023/07/10 10:56:04;;;;;;;8.90;2.60;;;;;;;39.15;19.96;99184.45;135694;1278;22552;-68
2023/07/10 10:59:06;;;;;;;7.00;2.20;;;;;;;39.03;20.12;99179.70;135713;1278;22527;-67
2023/07/10 11:02:08;;;;;;;6.40;2.10;;;;;;;39.12;19.47;99175.11;135724;1278;22534;-67
2023/07/10 11:05:11;;;;;;;13.70;2.70;;;;;;;39.48;20.61;99169.15;135727;1278;22618;-67
2023/07/10 11:08:13;;;;;;;7.50;2.50;;;;;;;40.09;20.41;99159.74;135702;1278;25266;-67
2023/07/10 11:11:16;;;;;;;8.20;2.40;;;;;;;40.45;19.56;99158.94;135728;1278;22556;-67
2023/07/10 11:14:18;;;;;;;5.00;2.20;;;;;;;39.78;20.45;99155.09;135657;1278;22534;-68
2023/07/10 11:17:21;;;;;;;7.00;2.40;;;;;;;40.14;21.20;99151.81;135723;1259;22538;-67
2023/07/10 11:20:23;;;;;;;6.60;2.40;;;;;;;40.41;21.46;99153.61;135744;1259;22550;-67
2023/07/10 11:23:26;;;;;;;7.90;2.40;;;;;;;40.84;21.35;99148.66;135730;1259;22552;-68
2023/07/10 11:26:29;;;;;;;6.80;2.40;;;;;;;40.97;20.87;99145.48;135698;1276;24367;-68
2023/07/10 11:29:32;;;;;;;7.30;2.60;;;;;;;40.68;21.01;99137.88;135728;1278;22537;-68
2023/07/10 11:32:34;;;;;;;8.90;2.70;;;;;;;40.34;20.73;99135.30;135716;1278;22556;-67
2023/07/10 11:35:37;;;;;;;7.30;2.50;;;;;;;40.30;21.18;99128.36;135696;1278;25958;-67
2023/07/10 11:38:39;;;;;;;8.30;2.70;;;;;;;40.24;21.94;99126.29;135746;1278;22585;-68
2023/07/10 11:41:41;;;;;;;7.90;2.90;;;;;;;40.17;21.75;99125.66;135736;1278;22530;-67
2023/07/10 11:44:46;;;;;;;6.40;2.40;;;;;;;39.72;22.11;99118.93;135702;1278;22555;-67
2023/07/10 11:47:48;;;;;;;8.60;2.90;;;;;;;40.15;21.49;99116.63;135718;1278;22538;-67
2023/07/10 11:50:51;;;;;;;8.90;2.50;;;;;;;41.38;20.83;99113.88;135705;1259;22547;-67
2023/07/10 11:53:53;;;;;;;6.80;2.90;;;;;;;41.80;20.48;99111.88;135725;1259;23124;-67
2023/07/10 11:56:56;;;;;;;4.90;2.30;;;;;;;41.82;20.36;99112.29;135700;1260;22576;-68
2023/07/10 11:59:58;;;;;;;8.00;2.50;;;;;;;42.08;20.03;99102.51;135690;1259;22528;-68
2023/07/10 12:03:00;;;;;;;8.10;3.00;;;;;;;41.42;19.97;99099.23;135708;1278;22533;-68
2023/07/10 12:06:03;;;;;;;6.30;2.20;;;;;;;41.29;21.30;99093.07;135695;1255;22642;-68
2023/07/10 12:09:07;;;;;;;9.50;2.70;;;;;;;41.18;20.74;99081.78;135738;1260;24194;-65
2023/07/10 12:12:10;;;;;;;6.40;2.40;;;;;;;41.13;20.72;99071.16;135715;1278;22649;-66
2023/07/10 12:15:12;;;;;;;8.10;2.50;;;;;;;41.00;20.78;99064.65;135666;1278;22533;-67
2023/07/10 12:18:15;;;;;;;6.20;2.40;;;;;;;40.63;21.75;99055.30;135695;1278;22654;-67
2023/07/10 12:21:17;;;;;;;6.70;2.40;;;;;;;40.97;21.31;99057.63;135740;1278;23242;-67
2023/07/10 12:24:19;;;;;;;7.80;2.70;;;;;;;41.76;20.93;99056.41;135705;1259;24353;-67
2023/07/10 12:27:22;;;;;;;5.80;2.60;;;;;;;42.13;21.09;99060.40;135678;1278;22550;-67
2023/07/10 12:30:25;;;;;;;7.60;2.80;;;;;;;42.77;20.25;99064.43;135699;1278;22537;-64
2023/07/10 12:33:28;;;;;;;7.80;2.60;;;;;;;42.79;20.62;99058.67;135714;1278;22544;-67
2023/07/10 12:36:30;;;;;;;5.60;2.50;;;;;;;42.35;20.62;99052.62;135763;1258;22538;-67
2023/07/10 12:39:33;;;;;;;13.40;2.70;;;;;;;42.36;20.38;99048.25;135716;1259;22561;-67
2023/07/10 12:42:35;;;;;;;6.40;2.70;;;;;;;42.04;20.66;99045.55;135702;1278;22547;-67
2023/07/10 12:45:39;;;;;;;8.00;2.60;;;;;;;41.86;21.27;99047.56;135696;1267;22536;-67
2023/07/10 12:48:42;;;;;;;8.30;2.60;;;;;;;41.90;20.89;99053.45;135713;1259;22636;-67
2023/07/10 12:51:44;;;;;;;7.90;2.60;;;;;;;41.78;20.73;99049.73;135598;1278;22526;-67
2023/07/10 12:54:47;;;;;;;6.10;2.60;;;;;;;41.91;20.60;99042.20;135694;1278;22553;-67
2023/07/10 12:57:50;;;;;;;9.90;2.70;;;;;;;41.68;20.53;99036.73;135713;1278;22557;-66
2023/07/10 13:00:52;;;;;;;8.90;2.90;;;;;;;41.17;21.37;99042.19;135729;1278;22558;-66
2023/07/10 13:03:54;;;;;;;9.00;2.80;;;;;;;41.29;21.48;99033.50;135735;1275;22551;-66
2023/07/10 13:06:57;;;;;;;9.10;2.80;;;;;;;41.70;21.35;99027.31;135695;1278;22541;-66
2023/07/10 13:09:59;;;;;;;6.30;2.70;;;;;;;41.40;21.00;99028.76;135740;1256;25315;-67
2023/07/10 13:13:02;;;;;;;9.60;3.10;;;;;;;41.50;20.82;99024.73;135722;1278;22553;-66
2023/07/10 13:16:04;;;;;;;6.60;2.60;;;;;;;40.98;21.42;99022.67;135705;1255;22575;-66
2023/07/10 13:19:06;;;;;;;9.10;2.80;;;;;;;40.32;22.05;99013.94;135685;1278;22530;-66
2023/07/10 13:22:09;;;;;;;8.10;2.80;;;;;;;40.08;21.93;99009.71;135699;1278;22526;-66
2023/07/10 13:25:11;;;;;;;6.60;2.70;;;;;;;40.49;21.22;99005.38;135683;1278;22543;-66
2023/07/10 13:28:14;;;;;;;6.70;2.70;;;;;;;39.90;20.53;99005.96;135718;1267;22559;-66
2023/07/10 13:31:16;;;;;;;6.10;2.60;;;;;;;40.02;19.95;98999.76;135730;1278;22558;-66
2023/07/10 13:34:18;;;;;;;7.40;2.80;;;;;;;40.06;21.00;98997.36;135737;1278;22551;-66
2023/07/10 13:37:21;;;;;;;7.30;2.90;;;;;;;39.81;20.55;98996.27;135712;1278;22543;-66
2023/07/10 13:40:23;;;;;;;8.50;2.60;;;;;;;39.54;20.46;99001.33;135717;1278;22540;-66
2023/07/10 13:43:26;;;;;;;8.00;2.80;;;;;;;39.15;20.49;98998.81;135737;1278;22537;-66
2023/07/10 13:46:28;;;;;;;8.70;2.90;;;;;;;38.91;20.73;98993.58;135742;1278;22648;-66
2023/07/10 13:49:31;;;;;;;9.70;2.70;;;;;;;38.94;20.69;98992.47;135708;1259;24373;-66
2023/07/10 13:52:33;;;;;;;7.30;2.80;;;;;;;39.06;20.84;98998.39;135712;1278;22541;-65
2023/07/10 13:55:35;;;;;;;9.80;2.80;;;;;;;39.06;20.52;98994.86;135716;1278;22643;-66
2023/07/10 13:58:38;;;;;;;6.40;2.50;;;;;;;39.01;20.84;98994.20;135736;1278;25460;-66
2023/07/10 14:01:40;;;;;;;5.60;2.60;;;;;;;39.16;20.25;98994.59;135723;1278;22527;-66
2023/07/10 14:04:43;;;;;;;8.10;2.60;;;;;;;39.30;20.37;98987.16;135721;1278;22557;-65
2023/07/10 14:07:45;;;;;;;7.50;2.80;;;;;;;39.17;20.74;98979.72;135722;1278;22545;-66
2023/07/10 14:10:48;;;;;;;8.80;2.60;;;;;;;39.43;20.34;98971.58;135719;1278;22537;-65
2023/07/10 14:13:50;;;;;;;7.40;2.80;;;;;;;39.60;20.03;98976.19;135684;1278;22538;-65